Batalha, Brazil
Current Conditions -  °F | °C
As of 12:00 PM on Saturday 22 Nov 2014 (Local Time) from SBAR Reporting Station
Scattered Clouds Scattered Clouds  
Wind Chill: 82°   Ceiling: Unl
Heat Index: 88°   Visibility: 6mi
Dew Point: 73°   Wind: 14mph
Humidity: 74%   Direction: 110°ESE
Pressure: 29.94"   Gusts: NA
Location:  9.68°S, 37.12°W
Report Text: SBAR 221500Z 11012KT 9999 SCT018 28/23 Q1014
Loading
Personal Weather Stations






























Interactive Weather Map New forecast layout! Learn more

10-Day Weather Forecast

Advertisements
Track Severe Weather on mobile